Neverland Angel — IBJO — position and weather

sailwx.info

Track history (hours):
 
Tides and Currents Weather Stations Pressure Air Temp Water Temp Dewpoint Dewpoint Depression Visibility Wind Speed Wind Dir Waves Ship Positions

Neverland Angel

Last reported at 2017-Sep-21 00:46 UTC. Time now 2017-Sep-21 12:35 UTC.
Position N 35°50' E 033°18'.

Length 248 m; draft 12.5 m.

Type: Ship. MMSI: 247258200.

Date/timePositionNaut miles runAvg speedWind from/ knotsBaromVisibWave heightAir tempDewpointWater temp
2017-Sep-21 00:46N 35°50' E 033°18'2711.4
2017-Sep-20 22:26N 35°44' E 032°46'511.3
2017-Sep-20 22:00N 35°43' E 032°40'611.2
2017-Sep-20 21:30N 35°43' E 032°33'611.3
2017-Sep-20 21:00N 35°42' E 032°26'611.4
2017-Sep-20 20:30N 35°42' E 032°19'611.5
2017-Sep-20 19:58N 35°41' E 032°12'611.3
2017-Sep-20 19:29N 35°40' E 032°05'611.2
2017-Sep-20 18:58N 35°39' E 031°58'2611.7
2017-Sep-20 16:44N 35°36' E 031°26'512.4
2017-Sep-20 16:21N 35°36' E 031°20'612.3
2017-Sep-20 15:52N 35°36' E 031°13'612.6
2017-Sep-20 15:25N 35°35' E 031°06'513.0
2017-Sep-20 15:00N 35°34' E 030°59'319 9.0
2017-Sep-19 03:36N 35°41' E 024°27'2 9.7
2017-Sep-19 03:25N 35°41' E 024°24'4 9.8
2017-Sep-19 03:00N 35°42' E 024°20'7 9.6
2017-Sep-19 02:18N 35°43' E 024°11'3 9.6
2017-Sep-19 01:57N 35°43' E 024°07'10 9.6
2017-Sep-19 00:54N 35°45' E 023°55'4 9.6
2017-Sep-19 00:30N 35°46' E 023°50'6 9.3
2017-Sep-18 23:53N 35°46' E 023°43'86 9.2
2017-Sep-18 14:32N 35°51' E 021°57'204 9.1
2017-Sep-17 16:08N 36°17' E 017°47'1 9.2
2017-Sep-17 16:00N 36°17' E 017°45'5 9.1
2017-Sep-17 15:30N 36°17' E 017°40'5 9.2
2017-Sep-17 15:00N 36°18' E 017°34'5 9.2
2017-Sep-17 14:30N 36°18' E 017°29'5 9.2
2017-Sep-17 14:00N 36°19' E 017°23'5 9.3
2017-Sep-17 13:30N 36°19' E 017°17'5 9.3
2017-Sep-17 13:00N 36°20' E 017°11'5 9.3
2017-Sep-17 12:30N 36°20' E 017°06'5 9.4
2017-Sep-17 12:00N 36°21' E 016°60'6 9.6
2017-Sep-17 11:23N 36°22' E 016°52'4 9.5
2017-Sep-17 10:59N 36°22' E 016°48'5 9.5
2017-Sep-17 10:30N 36°23' E 016°42'5 9.6
2017-Sep-17 10:00N 36°24' E 016°36'5 9.5
2017-Sep-17 09:30N 36°24' E 016°30'5 9.4
2017-Sep-17 09:00N 36°24' E 016°25'5 9.3
2017-Sep-17 08:30N 36°25' E 016°19'5 9.3
2017-Sep-17 08:00N 36°26' E 016°13'5 9.3
2017-Sep-17 07:30N 36°27' E 016°08'11 9.3
2017-Sep-17 06:16N 36°28' E 015°54'2 9.0
2017-Sep-17 06:00N 36°29' E 015°51'4 8.7
2017-Sep-17 05:30N 36°30' E 015°45'4 8.5
2017-Sep-17 05:00N 36°30' E 015°40'4 8.4
2017-Sep-17 04:30N 36°30' E 015°35'4 8.6
2017-Sep-17 04:00N 36°31' E 015°30'4 8.7
2017-Sep-17 03:30N 36°31' E 015°24'4 8.9
2017-Sep-17 03:00N 36°31' E 015°19'4 8.8
2017-Sep-17 02:30N 36°32' E 015°13'4 8.7
2017-Sep-17 02:00N 36°32' E 015°08'4 8.8
2017-Sep-17 01:30N 36°33' E 015°02'5 9.2
2017-Sep-17 01:00N 36°34' E 014°57'5 9.3
2017-Sep-17 00:30N 36°35' E 014°51'5 9.3
2017-Sep-17 00:00N 36°37' E 014°46'5 9.1
2017-Sep-16 23:24N 36°38' E 014°39'3 8.8
2017-Sep-16 23:00N 36°39' E 014°35'4 8.8
2017-Sep-16 22:30N 36°40' E 014°30'4 8.6
2017-Sep-16 22:00N 36°42' E 014°25'4 8.7
2017-Sep-16 21:30N 36°44' E 014°20'5 9.2
2017-Sep-16 21:00N 36°46' E 014°15'5 9.6
2017-Sep-16 20:30N 36°48' E 014°10'5 9.9
2017-Sep-16 20:00N 36°51' E 014°04'5 9.9
2017-Sep-16 19:29N 36°54' E 013°59'5 9.9
2017-Sep-16 18:59N 36°56' E 013°54'510.0
2017-Sep-16 18:30N 36°59' E 013°48'510.2
2017-Sep-16 18:00N 37°02' E 013°43'510.1
2017-Sep-16 17:30N 37°05' E 013°38'5 9.9
2017-Sep-16 17:00N 37°07' E 013°33'510.2
2017-Sep-16 16:30N 37°10' E 013°27'510.6
2017-Sep-16 15:59N 37°13' E 013°21'510.4
2017-Sep-16 15:30N 37°15' E 013°16'510.2
2017-Sep-16 15:00N 37°17' E 013°10'510.1
2017-Sep-16 14:30N 37°19' E 013°04'5 9.8
2017-Sep-16 14:00N 37°21' E 012°59'5 9.5
2017-Sep-16 13:30N 37°23' E 012°53'5 9.1
2017-Sep-16 13:00N 37°25' E 012°48'5 8.8
2017-Sep-16 12:29N 37°26' E 012°43'4 8.6
2017-Sep-16 12:00N 37°28' E 012°37'4 8.5
2017-Sep-16 11:30N 37°29' E 012°32'4 8.7
2017-Sep-16 11:00N 37°31' E 012°27'6 8.9
2017-Sep-16 10:21N 37°33' E 012°21'3 8.7
2017-Sep-16 10:00N 37°35' E 012°17'16 8.9
2017-Sep-16 08:09N 37°42' E 011°59'1 9.0
2017-Sep-16 08:00N 37°42' E 011°57'5 9.1
2017-Sep-16 07:30N 37°44' E 011°52'29 8.8
2017-Sep-16 04:14N 37°57' E 011°19'2 8.9
2017-Sep-16 03:58N 37°58' E 011°16'5 9.1
2017-Sep-16 03:23N 38°00' E 011°10'4 9.3
2017-Sep-16 03:00N 38°01' E 011°06'5 9.2
2017-Sep-16 02:30N 38°03' E 011°00'5 9.4
2017-Sep-16 01:59N 38°05' E 010°55'6 9.6
2017-Sep-16 01:23N 38°06' E 010°48'4 9.6
2017-Sep-16 01:00N 38°08' E 010°43'5 9.7
2017-Sep-16 00:30N 38°09' E 010°37'5 9.7
2017-Sep-16 00:00N 38°11' E 010°32'5 9.6
2017-Sep-15 23:30N 38°12' E 010°26'5 9.5
2017-Sep-15 23:00N 38°14' E 010°20'5 9.5
2017-Sep-15 22:30N 38°15' E 010°14'5 9.5
2017-Sep-15 22:00N 38°17' E 010°08'5 9.4
2017-Sep-15 21:30N 38°18' E 010°03'5 9.2
2017-Sep-15 21:00N 38°20' E 009°57'5 9.4
2017-Sep-15 20:30N 38°21' E 009°52'5 9.6
2017-Sep-15 20:00N 38°23' E 009°46'5 9.6
2017-Sep-15 19:30N 38°24' E 009°40'5 9.5
2017-Sep-15 19:00N 38°26' E 009°34'5 9.7
2017-Sep-15 18:30N 38°28' E 009°29'5 9.7
2017-Sep-15 18:00N 38°29' E 009°23'5 9.6
2017-Sep-15 17:30N 38°31' E 009°17'5 9.5
2017-Sep-15 17:00N 38°32' E 009°11'5 9.5
2017-Sep-15 16:30N 38°33' E 009°05'5 9.4
2017-Sep-15 16:00N 38°35' E 008°60'5 9.2
2017-Sep-15 15:30N 38°37' E 008°54'5 9.0
2017-Sep-15 14:59N 38°39' E 008°49'4 9.0
2017-Sep-15 14:30N 38°41' E 008°44'4 9.0
2017-Sep-15 14:00N 38°42' E 008°38'10 9.2
2017-Sep-15 12:56N 38°46' E 008°27'4 9.5
2017-Sep-15 12:30N 38°48' E 008°22'5 9.2
2017-Sep-15 11:55N 38°52' E 008°18'4 8.5
2017-Sep-15 11:25N 38°56' E 008°14'4 8.7
2017-Sep-15 11:00N 38°58' E 008°11'9 8.6
2017-Sep-15 09:55N 39°06' E 008°05'203 8.9
2017-Sep-14 11:08N 42°00' E 005°47'212.6
2017-Sep-14 10:59N 42°02' E 005°46'813.4
2017-Sep-14 10:23N 42°09' E 005°40'612.9
2017-Sep-14 09:57N 42°14' E 005°36'613.0
2017-Sep-14 09:30N 42°18' E 005°32'1613.2
2017-Sep-14 08:16N 42°32' E 005°21'413.5
2017-Sep-14 07:57N 42°36' E 005°18'713.5
2017-Sep-14 07:28N 42°42' E 005°13'613.1
2017-Sep-14 07:01N 42°47' E 005°10'713.2
2017-Sep-14 06:30N 42°54' E 005°07'613.0
2017-Sep-14 06:01N 42°60' E 005°05'713.0
2017-Sep-14 05:30N 43°06' E 005°02'712.9
2017-Sep-14 04:59N 43°13' E 005°00'612.9
2017-Sep-14 04:31N 43°19' E 004°59'5 9.6
2017-Sep-14 04:00N 43°23' E 004°56'2 3.5
2017-Sep-14 03:18N 43°24' E 004°53'0 0.0
2017-Sep-14 02:54N 43°24' E 004°53'0 0.0
2017-Sep-14 02:30N 43°24' E 004°53'0 0.0
2017-Sep-14 02:00N 43°24' E 004°53'0 0.0
2017-Sep-14 01:30N 43°24' E 004°53'0 0.0
2017-Sep-14 00:51N 43°24' E 004°53'0 0.0
2017-Sep-14 00:24N 43°24' E 004°53'0 0.0
2017-Sep-13 23:57N 43°24' E 004°53'0 0.0
2017-Sep-13 23:27N 43°24' E 004°53'0 0.0
2017-Sep-13 23:00N 43°24' E 004°53'0 0.0
2017-Sep-13 22:27N 43°24' E 004°53'0 0.0
2017-Sep-13 21:57N 43°24' E 004°53'0 0.0
2017-Sep-13 21:27N 43°24' E 004°53'0 0.0
2017-Sep-13 20:57N 43°24' E 004°53'0 0.0
2017-Sep-13 20:30N 43°24' E 004°53'0 0.0
2017-Sep-13 19:57N 43°24' E 004°53'0 0.0
2017-Sep-13 19:27N 43°24' E 004°53'0 0.0
2017-Sep-13 18:54N 43°24' E 004°53'0 0.0
2017-Sep-13 18:15N 43°24' E 004°53'0 0.0
2017-Sep-13 17:57N 43°24' E 004°53'0 0.0
2017-Sep-13 17:30N 43°24' E 004°53'0 0.0
2017-Sep-13 17:00N 43°24' E 004°53'0 0.0
2017-Sep-13 16:30N 43°24' E 004°53'0 0.0
2017-Sep-13 15:57N 43°24' E 004°53'0 0.0
2017-Sep-13 15:27N 43°24' E 004°53'0 0.0
2017-Sep-13 15:00N 43°24' E 004°53'0 0.0
2017-Sep-13 14:24N 43°24' E 004°53'0 0.0
2017-Sep-13 14:00N 43°24' E 004°53'0 0.0
2017-Sep-13 13:30N 43°24' E 004°53'0 0.0
2017-Sep-13 12:57N 43°24' E 004°53'0 0.0
2017-Sep-13 12:30N 43°24' E 004°53'0 0.0
2017-Sep-13 11:54N 43°24' E 004°53'0 0.0
2017-Sep-13 11:30N 43°24' E 004°53'0 0.0
2017-Sep-13 11:00N 43°24' E 004°53'0 0.0
2017-Sep-13 10:30N 43°24' E 004°53'0 0.0
2017-Sep-13 10:00N 43°24' E 004°53'0 0.0
2017-Sep-13 09:27N 43°24' E 004°53'0 0.0
2017-Sep-13 08:57N 43°24' E 004°53'0 0.0
2017-Sep-13 08:27N 43°24' E 004°53'0 0.0
2017-Sep-13 08:00N 43°24' E 004°53'0 0.0
2017-Sep-13 07:30N 43°24' E 004°53'0 0.0
2017-Sep-13 07:00N 43°24' E 004°53'0 0.0
2017-Sep-13 06:27N 43°24' E 004°53'0 0.0
2017-Sep-13 06:00N 43°24' E 004°53'0 0.0
2017-Sep-13 05:27N 43°24' E 004°53'0 0.0
2017-Sep-13 05:00N 43°24' E 004°53'0 0.0
2017-Sep-13 04:27N 43°24' E 004°53'0 0.0
2017-Sep-13 04:00N 43°24' E 004°53'0 0.0
2017-Sep-13 03:30N 43°24' E 004°53'0 0.0
2017-Sep-13 02:57N 43°24' E 004°53'0 0.0
2017-Sep-13 02:30N 43°24' E 004°53'0 0.0
2017-Sep-13 01:54N 43°24' E 004°53'0 0.0
2017-Sep-13 01:30N 43°24' E 004°53'0 0.0
2017-Sep-13 01:00N 43°24' E 004°53'0 0.0
2017-Sep-13 00:30N 43°24' E 004°53'0 0.0
2017-Sep-13 00:00N 43°24' E 004°53'0 0.0
2017-Sep-12 23:27N 43°24' E 004°53'0 0.0
2017-Sep-12 22:57N 43°24' E 004°53'0 0.0
2017-Sep-12 22:30N 43°24' E 004°53'0 0.0
2017-Sep-12 21:57N 43°24' E 004°53'0 0.0
2017-Sep-12 21:27N 43°24' E 004°53'0 0.0
2017-Sep-12 20:57N 43°24' E 004°53'0 0.0
2017-Sep-12 20:30N 43°24' E 004°53'0 0.0
2017-Sep-12 19:57N 43°24' E 004°53'0 0.0
2017-Sep-12 19:30N 43°24' E 004°53'2 3.1
2017-Sep-12 19:01N 43°24' E 004°55'4 7.7
2017-Sep-12 18:31N 43°21' E 004°59'3 6.9
2017-Sep-12 18:00N 43°17' E 005°00'4 8.6
2017-Sep-12 17:30N 43°13' E 005°02'4 8.9
2017-Sep-12 17:01N 43°09' E 005°04'510.4
2017-Sep-12 16:31N 43°04' E 005°06'510.8
2017-Sep-12 16:00N 42°59' E 005°08'611.3
2017-Sep-12 15:30N 42°54' E 005°12'611.3
2017-Sep-12 15:01N 42°49' E 005°15'611.0
2017-Sep-12 14:31N 42°44' E 005°19'510.9
2017-Sep-12 14:01N 42°39' E 005°22'611.1
2017-Sep-12 13:31N 42°34' E 005°26'510.9
2017-Sep-12 13:01N 42°30' E 005°30'811.1
2017-Sep-12 12:15N 42°23' E 005°36'  
Track history (hours):
 
Tides and Currents Weather Stations Pressure Air Temp Water Temp Dewpoint Dewpoint Depression Visibility Wind Speed Wind Dir Waves Ship Positions

Neverland Angel

Last reported at 2017-Sep-21 00:46 UTC. Time now 2017-Sep-21 12:35 UTC.
Position N 35°50' E 033°18'.

Length 248 m; draft 12.5 m.

Type: Ship. MMSI: 247258200.

Date/timePositionNaut miles runAvg speedWind from/ knotsBaromVisibWave heightAir tempDewpointWater temp
2017-Sep-21 00:46N 35°50' E 033°18'2711.4
2017-Sep-20 22:26N 35°44' E 032°46'511.3
2017-Sep-20 22:00N 35°43' E 032°40'611.2
2017-Sep-20 21:30N 35°43' E 032°33'611.3
2017-Sep-20 21:00N 35°42' E 032°26'611.4
2017-Sep-20 20:30N 35°42' E 032°19'611.5
2017-Sep-20 19:58N 35°41' E 032°12'611.3
2017-Sep-20 19:29N 35°40' E 032°05'611.2
2017-Sep-20 18:58N 35°39' E 031°58'2611.7
2017-Sep-20 16:44N 35°36' E 031°26'512.4
2017-Sep-20 16:21N 35°36' E 031°20'612.3
2017-Sep-20 15:52N 35°36' E 031°13'612.6
2017-Sep-20 15:25N 35°35' E 031°06'513.0
2017-Sep-20 15:00N 35°34' E 030°59'319 9.0
2017-Sep-19 03:36N 35°41' E 024°27'2 9.7
2017-Sep-19 03:25N 35°41' E 024°24'4 9.8
2017-Sep-19 03:00N 35°42' E 024°20'7 9.6
2017-Sep-19 02:18N 35°43' E 024°11'3 9.6
2017-Sep-19 01:57N 35°43' E 024°07'10 9.6
2017-Sep-19 00:54N 35°45' E 023°55'4 9.6
2017-Sep-19 00:30N 35°46' E 023°50'6 9.3
2017-Sep-18 23:53N 35°46' E 023°43'86 9.2
2017-Sep-18 14:32N 35°51' E 021°57'204 9.1
2017-Sep-17 16:08N 36°17' E 017°47'1 9.2
2017-Sep-17 16:00N 36°17' E 017°45'5 9.1
2017-Sep-17 15:30N 36°17' E 017°40'5 9.2
2017-Sep-17 15:00N 36°18' E 017°34'5 9.2
2017-Sep-17 14:30N 36°18' E 017°29'5 9.2
2017-Sep-17 14:00N 36°19' E 017°23'5 9.3
2017-Sep-17 13:30N 36°19' E 017°17'5 9.3
2017-Sep-17 13:00N 36°20' E 017°11'5 9.3
2017-Sep-17 12:30N 36°20' E 017°06'5 9.4
2017-Sep-17 12:00N 36°21' E 016°60'6 9.6
2017-Sep-17 11:23N 36°22' E 016°52'4 9.5
2017-Sep-17 10:59N 36°22' E 016°48'5 9.5
2017-Sep-17 10:30N 36°23' E 016°42'5 9.6
2017-Sep-17 10:00N 36°24' E 016°36'5 9.5
2017-Sep-17 09:30N 36°24' E 016°30'5 9.4
2017-Sep-17 09:00N 36°24' E 016°25'5 9.3
2017-Sep-17 08:30N 36°25' E 016°19'5 9.3
2017-Sep-17 08:00N 36°26' E 016°13'5 9.3
2017-Sep-17 07:30N 36°27' E 016°08'11 9.3
2017-Sep-17 06:16N 36°28' E 015°54'2 9.0
2017-Sep-17 06:00N 36°29' E 015°51'4 8.7
2017-Sep-17 05:30N 36°30' E 015°45'4 8.5
2017-Sep-17 05:00N 36°30' E 015°40'4 8.4
2017-Sep-17 04:30N 36°30' E 015°35'4 8.6
2017-Sep-17 04:00N 36°31' E 015°30'4 8.7
2017-Sep-17 03:30N 36°31' E 015°24'4 8.9
2017-Sep-17 03:00N 36°31' E 015°19'4 8.8
2017-Sep-17 02:30N 36°32' E 015°13'4 8.7
2017-Sep-17 02:00N 36°32' E 015°08'4 8.8
2017-Sep-17 01:30N 36°33' E 015°02'5 9.2
2017-Sep-17 01:00N 36°34' E 014°57'5 9.3
2017-Sep-17 00:30N 36°35' E 014°51'5 9.3
2017-Sep-17 00:00N 36°37' E 014°46'5 9.1
2017-Sep-16 23:24N 36°38' E 014°39'3 8.8
2017-Sep-16 23:00N 36°39' E 014°35'4 8.8
2017-Sep-16 22:30N 36°40' E 014°30'4 8.6
2017-Sep-16 22:00N 36°42' E 014°25'4 8.7
2017-Sep-16 21:30N 36°44' E 014°20'5 9.2
2017-Sep-16 21:00N 36°46' E 014°15'5 9.6
2017-Sep-16 20:30N 36°48' E 014°10'5 9.9
2017-Sep-16 20:00N 36°51' E 014°04'5 9.9
2017-Sep-16 19:29N 36°54' E 013°59'5 9.9
2017-Sep-16 18:59N 36°56' E 013°54'510.0
2017-Sep-16 18:30N 36°59' E 013°48'510.2
2017-Sep-16 18:00N 37°02' E 013°43'510.1
2017-Sep-16 17:30N 37°05' E 013°38'5 9.9
2017-Sep-16 17:00N 37°07' E 013°33'510.2
2017-Sep-16 16:30N 37°10' E 013°27'510.6
2017-Sep-16 15:59N 37°13' E 013°21'510.4
2017-Sep-16 15:30N 37°15' E 013°16'510.2
2017-Sep-16 15:00N 37°17' E 013°10'510.1
2017-Sep-16 14:30N 37°19' E 013°04'5 9.8
2017-Sep-16 14:00N 37°21' E 012°59'5 9.5
2017-Sep-16 13:30N 37°23' E 012°53'5 9.1
2017-Sep-16 13:00N 37°25' E 012°48'5 8.8
2017-Sep-16 12:29N 37°26' E 012°43'4 8.6
2017-Sep-16 12:00N 37°28' E 012°37'4 8.5
2017-Sep-16 11:30N 37°29' E 012°32'4 8.7
2017-Sep-16 11:00N 37°31' E 012°27'6 8.9
2017-Sep-16 10:21N 37°33' E 012°21'3 8.7
2017-Sep-16 10:00N 37°35' E 012°17'16 8.9
2017-Sep-16 08:09N 37°42' E 011°59'1 9.0
2017-Sep-16 08:00N 37°42' E 011°57'5 9.1
2017-Sep-16 07:30N 37°44' E 011°52'29 8.8
2017-Sep-16 04:14N 37°57' E 011°19'2 8.9
2017-Sep-16 03:58N 37°58' E 011°16'5 9.1
2017-Sep-16 03:23N 38°00' E 011°10'4 9.3
2017-Sep-16 03:00N 38°01' E 011°06'5 9.2
2017-Sep-16 02:30N 38°03' E 011°00'5 9.4
2017-Sep-16 01:59N 38°05' E 010°55'6 9.6
2017-Sep-16 01:23N 38°06' E 010°48'4 9.6
2017-Sep-16 01:00N 38°08' E 010°43'5 9.7
2017-Sep-16 00:30N 38°09' E 010°37'5 9.7
2017-Sep-16 00:00N 38°11' E 010°32'5 9.6
2017-Sep-15 23:30N 38°12' E 010°26'5 9.5
2017-Sep-15 23:00N 38°14' E 010°20'5 9.5
2017-Sep-15 22:30N 38°15' E 010°14'5 9.5
2017-Sep-15 22:00N 38°17' E 010°08'5 9.4
2017-Sep-15 21:30N 38°18' E 010°03'5 9.2
2017-Sep-15 21:00N 38°20' E 009°57'5 9.4
2017-Sep-15 20:30N 38°21' E 009°52'5 9.6
2017-Sep-15 20:00N 38°23' E 009°46'5 9.6
2017-Sep-15 19:30N 38°24' E 009°40'5 9.5
2017-Sep-15 19:00N 38°26' E 009°34'5 9.7
2017-Sep-15 18:30N 38°28' E 009°29'5 9.7
2017-Sep-15 18:00N 38°29' E 009°23'5 9.6
2017-Sep-15 17:30N 38°31' E 009°17'5 9.5
2017-Sep-15 17:00N 38°32' E 009°11'5 9.5
2017-Sep-15 16:30N 38°33' E 009°05'5 9.4
2017-Sep-15 16:00N 38°35' E 008°60'5 9.2
2017-Sep-15 15:30N 38°37' E 008°54'5 9.0
2017-Sep-15 14:59N 38°39' E 008°49'4 9.0
2017-Sep-15 14:30N 38°41' E 008°44'4 9.0
2017-Sep-15 14:00N 38°42' E 008°38'10 9.2
2017-Sep-15 12:56N 38°46' E 008°27'4 9.5
2017-Sep-15 12:30N 38°48' E 008°22'5 9.2
2017-Sep-15 11:55N 38°52' E 008°18'4 8.5
2017-Sep-15 11:25N 38°56' E 008°14'4 8.7
2017-Sep-15 11:00N 38°58' E 008°11'9 8.6
2017-Sep-15 09:55N 39°06' E 008°05'203 8.9
2017-Sep-14 11:08N 42°00' E 005°47'212.6
2017-Sep-14 10:59N 42°02' E 005°46'813.4
2017-Sep-14 10:23N 42°09' E 005°40'612.9
2017-Sep-14 09:57N 42°14' E 005°36'613.0
2017-Sep-14 09:30N 42°18' E 005°32'1613.2
2017-Sep-14 08:16N 42°32' E 005°21'413.5
2017-Sep-14 07:57N 42°36' E 005°18'713.5
2017-Sep-14 07:28N 42°42' E 005°13'613.1
2017-Sep-14 07:01N 42°47' E 005°10'713.2
2017-Sep-14 06:30N 42°54' E 005°07'613.0
2017-Sep-14 06:01N 42°60' E 005°05'713.0
2017-Sep-14 05:30N 43°06' E 005°02'712.9
2017-Sep-14 04:59N 43°13' E 005°00'612.9
2017-Sep-14 04:31N 43°19' E 004°59'5 9.6
2017-Sep-14 04:00N 43°23' E 004°56'2 3.5
2017-Sep-14 03:18N 43°24' E 004°53'0 0.0
2017-Sep-14 02:54N 43°24' E 004°53'0 0.0
2017-Sep-14 02:30N 43°24' E 004°53'0 0.0
2017-Sep-14 02:00N 43°24' E 004°53'0 0.0
2017-Sep-14 01:30N 43°24' E 004°53'0 0.0
2017-Sep-14 00:51N 43°24' E 004°53'0 0.0
2017-Sep-14 00:24N 43°24' E 004°53'0 0.0
2017-Sep-13 23:57N 43°24' E 004°53'0 0.0
2017-Sep-13 23:27N 43°24' E 004°53'0 0.0
2017-Sep-13 23:00N 43°24' E 004°53'0 0.0
2017-Sep-13 22:27N 43°24' E 004°53'0 0.0
2017-Sep-13 21:57N 43°24' E 004°53'0 0.0
2017-Sep-13 21:27N 43°24' E 004°53'0 0.0
2017-Sep-13 20:57N 43°24' E 004°53'0 0.0
2017-Sep-13 20:30N 43°24' E 004°53'0 0.0
2017-Sep-13 19:57N 43°24' E 004°53'0 0.0
2017-Sep-13 19:27N 43°24' E 004°53'0 0.0
2017-Sep-13 18:54N 43°24' E 004°53'0 0.0
2017-Sep-13 18:15N 43°24' E 004°53'0 0.0
2017-Sep-13 17:57N 43°24' E 004°53'0 0.0
2017-Sep-13 17:30N 43°24' E 004°53'0 0.0
2017-Sep-13 17:00N 43°24' E 004°53'0 0.0
2017-Sep-13 16:30N 43°24' E 004°53'0 0.0
2017-Sep-13 15:57N 43°24' E 004°53'0 0.0
2017-Sep-13 15:27N 43°24' E 004°53'0 0.0
2017-Sep-13 15:00N 43°24' E 004°53'0 0.0
2017-Sep-13 14:24N 43°24' E 004°53'0 0.0
2017-Sep-13 14:00N 43°24' E 004°53'0 0.0
2017-Sep-13 13:30N 43°24' E 004°53'0 0.0
2017-Sep-13 12:57N 43°24' E 004°53'0 0.0
2017-Sep-13 12:30N 43°24' E 004°53'0 0.0
2017-Sep-13 11:54N 43°24' E 004°53'0 0.0
2017-Sep-13 11:30N 43°24' E 004°53'0 0.0
2017-Sep-13 11:00N 43°24' E 004°53'0 0.0
2017-Sep-13 10:30N 43°24' E 004°53'0 0.0
2017-Sep-13 10:00N 43°24' E 004°53'0 0.0
2017-Sep-13 09:27N 43°24' E 004°53'0 0.0
2017-Sep-13 08:57N 43°24' E 004°53'0 0.0
2017-Sep-13 08:27N 43°24' E 004°53'0 0.0
2017-Sep-13 08:00N 43°24' E 004°53'0 0.0
2017-Sep-13 07:30N 43°24' E 004°53'0 0.0
2017-Sep-13 07:00N 43°24' E 004°53'0 0.0
2017-Sep-13 06:27N 43°24' E 004°53'0 0.0
2017-Sep-13 06:00N 43°24' E 004°53'0 0.0
2017-Sep-13 05:27N 43°24' E 004°53'0 0.0
2017-Sep-13 05:00N 43°24' E 004°53'0 0.0
2017-Sep-13 04:27N 43°24' E 004°53'0 0.0
2017-Sep-13 04:00N 43°24' E 004°53'0 0.0
2017-Sep-13 03:30N 43°24' E 004°53'0 0.0
2017-Sep-13 02:57N 43°24' E 004°53'0 0.0
2017-Sep-13 02:30N 43°24' E 004°53'0 0.0
2017-Sep-13 01:54N 43°24' E 004°53'0 0.0
2017-Sep-13 01:30N 43°24' E 004°53'0 0.0
2017-Sep-13 01:00N 43°24' E 004°53'0 0.0
2017-Sep-13 00:30N 43°24' E 004°53'0 0.0
2017-Sep-13 00:00N 43°24' E 004°53'0 0.0
2017-Sep-12 23:27N 43°24' E 004°53'0 0.0
2017-Sep-12 22:57N 43°24' E 004°53'0 0.0
2017-Sep-12 22:30N 43°24' E 004°53'0 0.0
2017-Sep-12 21:57N 43°24' E 004°53'0 0.0
2017-Sep-12 21:27N 43°24' E 004°53'0 0.0
2017-Sep-12 20:57N 43°24' E 004°53'0 0.0
2017-Sep-12 20:30N 43°24' E 004°53'0 0.0
2017-Sep-12 19:57N 43°24' E 004°53'0 0.0
2017-Sep-12 19:30N 43°24' E 004°53'2 3.1
2017-Sep-12 19:01N 43°24' E 004°55'4 7.7
2017-Sep-12 18:31N 43°21' E 004°59'3 6.9
2017-Sep-12 18:00N 43°17' E 005°00'4 8.6
2017-Sep-12 17:30N 43°13' E 005°02'4 8.9
2017-Sep-12 17:01N 43°09' E 005°04'510.4
2017-Sep-12 16:31N 43°04' E 005°06'510.8
2017-Sep-12 16:00N 42°59' E 005°08'611.3
2017-Sep-12 15:30N 42°54' E 005°12'611.3
2017-Sep-12 15:01N 42°49' E 005°15'611.0
2017-Sep-12 14:31N 42°44' E 005°19'510.9
2017-Sep-12 14:01N 42°39' E 005°22'611.1
2017-Sep-12 13:31N 42°34' E 005°26'510.9
2017-Sep-12 13:01N 42°30' E 005°30'811.1
2017-Sep-12 12:15N 42°23' E 005°36'  

Dump ship's entire track history